Boston, Massachusetts
Traffic Map
Current Weather Conditions
Boston, Massachusetts
Broken Clouds
Broken Clouds
42°
Feels Like: 39°
Wind Chill: 39° Ceiling: 25000
Heat Index: 42° Visibility: 10mi
Dew Point: 28° Wind: 5mph
Humidity: 58% Direction: 70° (ENE)
Pressure: 30.07in Gusts: 0mph
Raw Report DataKBOS 061954Z 07004KT 10SM FEW055 SCT160 BKN250 06/M02 A3007 RMK AO2 SLP181 T00561022
Traffic Incident Summary
Active as of:
Severity:
Category:
InformationThere was an issue retrieving the traffic information for this location. Please try a different location or try again shortly.
Advertisements
Track Severe Weather on mobile